Time;durP1;ratioP1;P1;durP2;ratioP2;P2;SDS_P1;SDS_P2;PMS_P1;PMS_P2;Temp;Humidity;BMP_temperature;BMP_pressure;BME280_temperature;BME280_humidity;BME280_pressure;Samples;Min_cycle;Max_cycle;Signal;HPM_P1;HPM_P2
2022/03/28 00:01:38;;;;;;;8.80;2.87;;;6.50;99.90;5.70;100652;;;;572652;247;24136;-82
2022/03/28 00:04:06;;;;;;;9.63;3.50;;;6.50;99.90;5.70;100648;;;;584974;243;24038;-79
2022/03/28 00:06:34;;;;;;;7.37;2.90;;;6.50;99.90;5.70;100646;;;;572608;247;24070;-78
2022/03/28 00:09:05;;;;;;;7.40;3.33;;;6.50;99.90;5.60;100645;;;;584864;243;24141;-78
2022/03/28 00:11:30;;;;;;;6.67;3.43;;;6.50;99.90;5.60;100634;;;;567919;248;24123;-77
2022/03/28 00:13:58;;;;;;;9.87;4.20;;;6.40;99.90;5.50;100635;;;;583123;243;24038;-81
2022/03/28 00:16:26;;;;;;;5.67;2.17;;;6.40;99.90;5.50;100641;;;;572923;247;24043;-81
2022/03/28 00:18:54;;;;;;;5.63;2.63;;;6.40;99.90;5.50;100632;;;;585092;243;24092;-82
2022/03/28 00:21:22;;;;;;;5.80;2.97;;;6.40;99.90;5.50;100627;;;;572681;248;24044;-80
2022/03/28 00:23:50;;;;;;;8.90;2.70;;;6.30;99.90;5.50;100628;;;;584763;243;24059;-81
2022/03/28 00:26:17;;;;;;;9.67;3.03;;;6.30;99.90;5.50;100625;;;;572317;248;24044;-82
2022/03/28 00:28:45;;;;;;;2.83;1.77;;;6.30;99.90;5.50;100610;;;;584706;243;24093;-82
2022/03/28 00:31:13;;;;;;;6.03;2.10;;;6.30;99.90;5.50;100605;;;;572268;248;24047;-80
2022/03/28 00:33:42;;;;;;;6.73;3.07;;;6.30;99.90;5.50;100608;;;;582816;243;24091;-81
2022/03/28 00:36:10;;;;;;;6.63;2.83;;;6.30;99.90;5.50;100596;;;;572324;248;24066;-82
2022/03/28 00:38:38;;;;;;;4.20;2.83;;;6.30;99.90;5.40;100599;;;;584913;243;24066;-77
2022/03/28 00:41:06;;;;;;;2.70;2.40;;;6.30;99.90;5.40;100579;;;;572651;248;24051;-82
2022/03/28 00:43:36;;;;;;;5.00;3.27;;;6.30;99.90;5.40;100588;;;;582674;243;24043;-82
2022/03/28 00:46:02;;;;;;;6.40;2.70;;;6.30;99.90;5.40;100574;;;;581952;242;24083;-77
2022/03/28 00:48:30;;;;;;;3.33;2.83;;;6.30;99.90;5.40;100576;;;;573258;246;24077;-78
2022/03/28 00:50:58;;;;;;;4.40;1.70;;;6.20;99.90;5.40;100572;;;;573140;246;24089;-77
2022/03/28 00:53:26;;;;;;;2.90;2.53;;;6.20;99.90;5.40;100561;;;;573270;246;24068;-78
2022/03/28 00:55:54;;;;;;;6.03;2.93;;;6.20;99.90;5.40;100560;;;;573964;246;24078;-77
2022/03/28 00:58:25;;;;;;;6.07;3.50;;;6.20;99.90;5.40;100552;;;;574209;246;24112;-77
2022/03/28 01:00:50;;;;;;;10.83;3.17;;;6.20;99.90;5.40;100546;;;;572621;247;24067;-79
2022/03/28 01:03:18;;;;;;;8.80;3.37;;;6.20;99.90;5.40;100543;;;;573200;247;24068;-81
2022/03/28 01:05:45;;;;;;;3.67;2.60;;;6.20;99.90;5.30;100541;;;;572776;247;24070;-81
2022/03/28 01:08:16;;;;;;;5.83;2.60;;;6.20;99.90;5.30;100538;;;;570277;247;24087;-82
2022/03/28 01:10:44;;;;;;;5.53;3.00;;;6.20;99.90;5.30;100521;;;;574029;246;24118;-81
2022/03/28 01:13:13;;;;;;;4.77;2.70;;;6.20;99.90;5.30;100515;;;;584516;243;24118;-83
2022/03/28 01:15:37;;;;;;;4.63;2.27;;;6.20;99.90;5.40;100513;;;;591853;242;24043;-82
2022/03/28 01:18:12;;;;;;;5.43;2.73;;;6.20;99.90;5.40;100509;;;;571959;248;24077;-81
2022/03/28 01:20:41;;;;;;;5.33;2.67;;;6.20;99.90;5.30;100495;;;;572123;248;24123;-81
2022/03/28 01:23:10;;;;;;;2.23;1.80;;;6.20;99.90;5.30;100499;;;;582711;243;24079;-81
2022/03/28 01:25:35;;;;;;;3.33;1.87;;;6.20;99.90;5.30;100496;;;;579620;242;24059;-79
2022/03/28 01:28:03;;;;;;;6.93;2.73;;;6.20;99.90;5.30;100491;;;;573329;246;24173;-78
2022/03/28 01:30:31;;;;;;;6.83;2.80;;;6.10;99.90;5.30;100491;;;;572806;246;24073;-80
2022/03/28 01:32:59;;;;;;;3.47;2.20;;;6.10;99.90;5.30;100476;;;;573180;246;24069;-80
2022/03/28 01:35:33;;;;;;;9.57;2.80;;;6.10;99.90;5.30;100479;;;;573026;246;24070;-80
2022/03/28 01:38:00;;;;;;;7.60;2.40;;;6.20;99.90;5.30;100478;;;;573560;246;24068;-81
2022/03/28 01:40:32;;;;;;;2.23;2.03;;;6.10;99.90;5.30;100477;;;;568570;246;24077;-80
2022/03/28 01:42:56;;;;;;;4.37;2.20;;;6.20;99.90;5.40;100478;;;;573344;246;24152;-80
2022/03/28 01:45:24;;;;;;;4.47;1.87;;;6.10;99.90;5.30;100474;;;;567960;246;24100;-83
2022/03/28 01:47:52;;;;;;;6.47;2.80;;;6.10;99.90;5.30;100475;;;;573097;246;24100;-81
2022/03/28 01:50:24;;;;;;;4.17;2.30;;;6.10;99.90;5.30;100455;;;;573418;246;24080;-82
2022/03/28 01:52:51;;;;;;;4.20;2.50;;;6.10;99.90;5.30;100464;;;;572947;246;24073;-80
2022/03/28 01:55:16;;;;;;;6.07;2.50;;;6.10;99.90;5.20;100457;;;;573934;246;24067;-81
2022/03/28 01:57:44;;;;;;;6.47;3.03;;;6.10;99.90;5.20;100464;;;;573885;246;24090;-82
2022/03/28 02:00:12;;;;;;;9.47;2.27;;;6.00;99.90;5.20;100470;;;;573875;246;24123;-81
2022/03/28 02:02:40;;;;;;;0.80;0.80;;;6.00;99.90;5.20;100455;;;;568693;246;24064;-78
2022/03/28 02:05:12;;;;;;;4.23;2.80;;;6.00;99.90;5.20;100455;;;;573193;246;24092;-78
2022/03/28 02:07:36;;;;;;;7.00;2.60;;;6.00;99.90;5.20;100462;;;;573955;246;24121;-78
2022/03/28 02:10:04;;;;;;;9.77;2.67;;;6.00;99.90;5.20;100461;;;;574255;246;24067;-81
2022/03/28 02:12:32;;;;;;;3.03;2.57;;;6.00;99.90;5.10;100458;;;;573980;246;24090;-81
2022/03/28 02:15:02;;;;;;;3.27;2.23;;;6.00;99.90;5.10;100473;;;;574084;246;24086;-80
2022/03/28 02:17:31;;;;;;;3.73;2.53;;;6.00;99.90;5.10;100457;;;;582459;246;24074;-78
2022/03/28 02:19:56;;;;;;;2.77;1.67;;;6.00;99.90;5.20;100461;;;;573749;246;24079;-82
2022/03/28 02:22:27;;;;;;;5.73;1.83;;;6.00;99.90;5.20;100444;;;;573899;246;24118;-82
2022/03/28 02:24:51;;;;;;;4.43;2.07;;;6.00;99.90;5.20;100454;;;;573784;246;24075;-82
2022/03/28 02:27:19;;;;;;;3.40;1.80;;;6.00;99.90;5.20;100454;;;;573741;246;24113;-79
2022/03/28 02:29:47;;;;;;;6.03;2.70;;;6.00;99.90;5.10;100445;;;;573514;246;24075;-83
2022/03/28 02:32:15;;;;;;;5.27;2.00;;;6.00;99.90;5.10;100458;;;;573612;246;24131;-82
2022/03/28 02:34:44;;;;;;;3.40;1.83;;;5.90;99.90;5.10;100450;;;;573538;246;24133;-82
2022/03/28 02:37:15;;;;;;;1.67;1.50;;;5.90;99.90;5.10;100451;;;;573986;246;24080;-79
2022/03/28 02:39:39;;;;;;;1.13;0.87;;;5.90;99.90;5.10;100452;;;;574017;246;24084;-81
2022/03/28 02:42:11;;;;;;;2.03;1.30;;;5.90;99.90;5.10;100452;;;;573764;246;24060;-78
2022/03/28 02:44:35;;;;;;;2.13;1.43;;;5.90;99.90;5.10;100452;;;;573090;246;24110;-77
2022/03/28 02:47:04;;;;;;;7.73;2.00;;;5.90;99.90;5.00;100445;;;;573204;246;24162;-78
2022/03/28 02:49:34;;;;;;;3.80;1.40;;;5.90;99.90;5.00;100439;;;;573311;246;24071;-79
2022/03/28 02:52:02;;;;;;;4.53;1.70;;;5.90;99.90;5.00;100442;;;;573041;246;24110;-77
2022/03/28 02:54:28;;;;;;;4.60;1.73;;;5.90;99.90;5.00;100432;;;;573467;246;24088;-79
2022/03/28 02:56:56;;;;;;;8.40;1.80;;;5.80;99.90;5.00;100429;;;;573255;246;24082;-78
2022/03/28 02:59:24;;;;;;;2.43;1.63;;;5.80;99.90;5.00;100429;;;;573244;246;24112;-80
2022/03/28 03:01:51;;;;;;;5.83;1.00;;;5.90;99.90;5.00;100430;;;;573276;246;24081;-78
2022/03/28 03:04:19;;;;;;;3.53;2.00;;;5.80;99.90;5.00;100430;;;;573109;246;24095;-79
2022/03/28 03:06:51;;;;;;;2.50;1.90;;;5.80;99.90;4.90;100433;;;;573234;246;24069;-77
2022/03/28 03:09:15;;;;;;;7.50;1.83;;;5.80;99.90;4.90;100429;;;;572616;246;24068;-80
2022/03/28 03:11:43;;;;;;;4.23;1.87;;;5.80;99.90;4.90;100427;;;;573014;246;24061;-78
2022/03/28 03:14:11;;;;;;;4.00;2.20;;;5.80;99.90;4.90;100429;;;;573191;246;24080;-79
2022/03/28 03:16:40;;;;;;;7.17;2.20;;;5.80;99.90;4.90;100425;;;;573024;246;24085;-78
2022/03/28 03:19:07;;;;;;;3.47;2.10;;;5.70;99.90;4.90;100426;;;;574155;246;24062;-78
2022/03/28 03:21:35;;;;;;;2.77;1.90;;;5.70;99.90;4.80;100412;;;;574155;246;24125;-79
2022/03/28 03:24:05;;;;;;;2.13;1.50;;;5.70;99.90;4.80;100418;;;;574418;246;24069;-76
2022/03/28 03:26:35;;;;;;;1.80;1.67;;;5.60;99.90;4.80;100419;;;;573885;246;24089;-80
2022/03/28 03:28:59;;;;;;;2.87;1.90;;;5.60;99.90;4.70;100417;;;;573326;246;24127;-77
2022/03/28 03:31:27;;;;;;;7.73;1.67;;;5.60;99.90;4.70;100425;;;;573674;246;24146;-79
2022/03/28 03:33:55;;;;;;;7.67;2.73;;;5.60;99.90;4.70;100414;;;;573499;246;24104;-78
2022/03/28 03:36:26;;;;;;;5.97;1.83;;;5.50;99.90;4.70;100413;;;;573635;246;24064;-80
2022/03/28 03:38:54;;;;;;;5.40;2.37;;;5.50;99.90;4.70;100402;;;;581806;246;24095;-80
2022/03/28 03:41:19;;;;;;;3.17;2.23;;;5.50;99.90;4.60;100397;;;;573418;246;24065;-78
2022/03/28 03:43:47;;;;;;;2.40;1.93;;;5.50;99.90;4.60;100389;;;;573733;246;24110;-79
2022/03/28 03:46:15;;;;;;;2.43;1.80;;;5.50;99.90;4.60;100397;;;;573735;246;24112;-81
2022/03/28 03:48:42;;;;;;;0.90;0.87;;;5.40;99.90;4.50;100383;;;;573417;246;24072;-80
2022/03/28 03:51:10;;;;;;;5.03;2.27;;;5.40;99.90;4.50;100390;;;;573693;246;24064;-80
2022/03/28 03:53:38;;;;;;;5.67;2.53;;;5.40;99.90;4.50;100379;;;;573649;246;24075;-78
2022/03/28 03:56:06;;;;;;;3.63;2.47;;;5.40;99.90;4.50;100367;;;;573393;246;25133;-79
2022/03/28 03:58:34;;;;;;;3.80;2.20;;;5.40;99.90;4.50;100373;;;;573437;246;24062;-81
2022/03/28 04:01:02;;;;;;;9.13;2.40;;;5.40;99.90;4.50;100367;;;;573515;246;24104;-82
2022/03/28 04:03:33;;;;;;;6.67;2.70;;;5.40;99.90;4.50;100373;;;;573666;246;24097;-82
2022/03/28 04:05:58;;;;;;;7.60;1.83;;;5.30;99.90;4.50;100369;;;;573466;246;24080;-81
2022/03/28 04:08:26;;;;;;;7.97;2.77;;;5.30;99.90;4.50;100374;;;;573809;246;24112;-80
2022/03/28 04:10:53;;;;;;;5.70;2.03;;;5.30;99.90;4.40;100372;;;;573721;246;24056;-79
2022/03/28 04:13:21;;;;;;;6.77;2.30;;;5.30;99.90;4.50;100370;;;;573847;246;24094;-81
2022/03/28 04:15:52;;;;;;;5.53;2.00;;;5.30;99.90;4.40;100361;;;;573785;246;25122;-77
2022/03/28 04:18:17;;;;;;;1.30;1.20;;;5.30;99.90;4.40;100359;;;;573352;246;24137;-78
2022/03/28 04:20:45;;;;;;;3.37;1.50;;;5.30;99.90;4.40;100358;;;;573636;246;24117;-78
2022/03/28 04:23:13;;;;;;;5.10;2.20;;;5.30;99.90;4.40;100362;;;;573590;246;24124;-80
2022/03/28 04:25:42;;;;;;;3.83;1.20;;;5.30;99.90;4.40;100365;;;;573581;246;24102;-81
2022/03/28 04:28:10;;;;;;;4.47;2.27;;;5.30;99.90;4.50;100362;;;;573522;246;24073;-81
2022/03/28 04:30:37;;;;;;;3.50;2.33;;;5.30;99.90;4.40;100368;;;;574491;246;24129;-82
2022/03/28 04:33:09;;;;;;;8.33;2.40;;;5.30;99.90;4.40;100360;;;;574756;246;24113;-82
2022/03/28 04:35:33;;;;;;;9.70;3.13;;;5.30;99.90;4.40;100355;;;;574051;246;24061;-81
2022/03/28 04:38:04;;;;;;;6.57;2.47;;;5.30;99.90;4.40;100361;;;;574352;246;24112;-84
2022/03/28 04:40:33;;;;;;;2.27;1.93;;;5.30;99.90;4.40;100343;;;;573726;246;24072;-81
2022/03/28 04:42:57;;;;;;;11.57;2.63;;;5.30;99.90;4.40;100345;;;;573450;246;24080;-80
2022/03/28 04:45:25;;;;;;;12.53;2.93;;;5.30;99.90;4.40;100337;;;;573524;246;24066;-80
2022/03/28 04:47:53;;;;;;;7.67;3.60;;;5.30;99.90;4.40;100340;;;;573632;246;24074;-79
2022/03/28 04:50:21;;;;;;;8.03;2.77;;;5.30;99.90;4.50;100341;;;;573378;246;24110;-81
2022/03/28 04:52:49;;;;;;;6.20;2.73;;;5.40;99.90;4.60;100336;;;;573241;246;24133;-78
2022/03/28 04:55:17;;;;;;;5.27;2.83;;;5.50;99.90;4.60;100331;;;;573432;246;24107;-80
2022/03/28 04:57:45;;;;;;;3.90;3.13;;;5.40;99.90;4.70;100336;;;;573846;246;24101;-78
2022/03/28 05:00:17;;;;;;;2.40;2.07;;;5.50;99.90;4.70;100338;;;;574291;246;24088;-78
2022/03/28 05:02:42;;;;;;;5.67;3.17;;;5.60;99.90;4.80;100335;;;;574113;246;24076;-76
2022/03/28 05:05:12;;;;;;;6.37;3.30;;;5.60;99.90;4.90;100332;;;;574523;246;24069;-78
2022/03/28 05:07:38;;;;;;;8.33;3.33;;;5.70;99.90;4.90;100334;;;;574076;246;24076;-80
2022/03/28 05:10:06;;;;;;;8.03;2.90;;;5.80;99.90;5.00;100333;;;;574042;246;24117;-81
2022/03/28 05:12:33;;;;;;;7.10;3.20;;;5.90;99.90;5.10;100325;;;;573699;246;24078;-78
2022/03/28 05:15:01;;;;;;;8.07;2.63;;;5.90;99.90;5.20;100320;;;;573155;246;24068;-77
2022/03/28 05:17:30;;;;;;;4.60;3.10;;;6.10;99.90;5.30;100317;;;;574209;246;24065;-78
2022/03/28 05:20:01;;;;;;;7.60;3.77;;;6.10;99.90;5.50;100317;;;;573223;246;24079;-77
2022/03/28 05:22:26;;;;;;;7.73;3.00;;;6.20;99.90;5.60;100326;;;;572863;246;24112;-78
2022/03/28 05:24:54;;;;;;;8.83;3.47;;;6.40;99.90;5.70;100318;;;;573130;246;24061;-79
2022/03/28 05:27:25;;;;;;;6.63;3.47;;;6.50;99.90;5.90;100311;;;;572986;246;24066;-78
2022/03/28 05:29:53;;;;;;;6.10;2.90;;;6.60;99.90;6.10;100310;;;;582219;243;24040;-77
2022/03/28 05:32:17;;;;;;;6.90;3.70;;;6.80;99.90;6.80;100297;;;;571111;248;24103;-77
2022/03/28 05:34:45;;;;;;;3.63;3.13;;;7.40;99.90;8.10;100303;;;;571728;248;24070;-77
2022/03/28 05:37:17;;;;;;;6.77;3.10;;;8.50;99.90;9.50;100312;;;;571593;248;24079;-77
2022/03/28 05:39:41;;;;;;;5.30;3.13;;;9.80;99.90;10.80;100307;;;;579700;246;24100;-77
2022/03/28 05:42:09;;;;;;;3.73;2.50;;;11.10;99.90;11.80;100310;;;;583536;242;24099;-77
2022/03/28 05:44:37;;;;;;;6.93;3.10;;;12.20;99.90;12.40;100309;;;;584051;243;24055;-78
2022/03/28 05:47:05;;;;;;;4.20;2.73;;;12.90;99.90;13.20;100304;;;;574145;247;24066;-78
2022/03/28 05:49:33;;;;;;;4.53;3.00;;;13.60;99.90;14.50;100302;;;;570735;247;24061;-79
2022/03/28 05:52:01;;;;;;;3.17;2.50;;;14.80;99.90;15.70;100306;;;;580213;243;24064;-79
2022/03/28 05:54:32;;;;;;;8.70;2.83;;;15.90;99.90;16.30;100297;;;;583382;243;24038;-78
2022/03/28 05:56:57;;;;;;;5.33;3.33;;;17.60;91.50;17.20;100304;;;;568762;247;24088;-78
2022/03/28 05:59:30;;;;;;;11.40;3.53;;;18.30;87.10;17.90;100296;;;;573822;246;24056;-81
2022/03/28 06:01:54;;;;;;;6.03;2.93;;;18.20;86.90;18.20;100293;;;;573228;246;24140;-82
2022/03/28 06:04:22;;;;;;;10.37;3.67;;;18.80;80.40;18.40;100294;;;;573678;246;24082;-80
2022/03/28 06:06:50;;;;;;;7.93;3.50;;;19.10;76.60;18.30;100296;;;;582379;246;23075;-77
2022/03/28 06:09:18;;;;;;;4.77;3.47;;;19.20;73.80;18.50;100300;;;;582398;246;24080;-80
2022/03/28 06:11:46;;;;;;;13.27;3.43;;;19.30;73.20;19.10;100288;;;;573627;246;24064;-82
2022/03/28 06:14:14;;;;;;;9.47;3.40;;;19.70;71.10;19.70;100297;;;;582441;246;24060;-79
2022/03/28 06:16:41;;;;;;;14.00;3.17;;;20.20;68.20;20.00;100285;;;;582435;246;23074;-81
2022/03/28 06:19:09;;;;;;;4.40;3.13;;;20.60;66.10;20.40;100283;;;;582085;246;23071;-80
2022/03/28 06:21:37;;;;;;;10.73;3.37;;;21.00;64.20;20.90;100283;;;;582176;246;24106;-80
2022/03/28 06:24:09;;;;;;;7.20;3.63;;;21.50;62.20;21.40;100285;;;;582167;246;24040;-81
2022/03/28 06:26:34;;;;;;;10.60;3.77;;;21.90;60.50;22.10;100296;;;;573139;246;23070;-78
2022/03/28 06:29:01;;;;;;;18.07;3.60;;;22.60;58.60;22.20;100296;;;;581963;246;24070;-78
2022/03/28 06:31:29;;;;;;;7.97;3.10;;;22.80;57.30;22.40;100302;;;;582061;246;24029;-80
2022/03/28 06:34:02;;;;;;;6.07;3.00;;;23.40;55.40;22.90;100305;;;;582103;246;24055;-78
2022/03/28 06:36:26;;;;;;;13.27;3.90;;;23.70;54.30;23.20;100287;;;;582046;246;24048;-77
2022/03/28 06:38:55;;;;;;;5.13;3.50;;;23.90;53.20;23.30;100301;;;;582149;246;24050;-78
2022/03/28 06:41:27;;;;;;;5.13;3.90;;;23.90;53.10;23.00;100297;;;;570424;246;24046;-78
2022/03/28 06:43:51;;;;;;;6.07;3.60;;;23.70;53.50;23.60;100291;;;;569692;246;24116;-81
2022/03/28 06:46:20;;;;;;;5.20;3.60;;;24.00;53.20;23.70;100287;;;;582004;246;23117;-81
2022/03/28 06:48:50;;;;;;;3.37;3.07;;;24.20;52.30;24.00;100291;;;;573797;246;23187;-78
2022/03/28 06:51:15;;;;;;;5.97;4.40;;;24.50;51.60;24.20;100281;;;;573823;246;23138;-82
2022/03/28 06:53:43;;;;;;;14.10;4.23;;;24.70;51.10;24.30;100285;;;;582737;245;23084;-81
2022/03/28 06:56:10;;;;;;;5.27;3.53;;;24.90;50.50;24.50;100285;;;;574073;246;23089;-79
2022/03/28 06:58:38;;;;;;;9.00;3.83;;;25.00;50.20;25.00;100286;;;;582666;246;23109;-82
2022/03/28 07:01:07;;;;;;;6.10;3.47;;;25.90;49.10;25.50;100281;;;;582545;246;24045;-82
2022/03/28 07:03:35;;;;;;;5.40;3.77;;;25.80;48.90;25.80;100281;;;;582441;246;24102;-80
2022/03/28 07:06:03;;;;;;;7.57;3.67;;;26.30;47.90;26.40;100277;;;;582527;246;23068;-82
2022/03/28 07:08:31;;;;;;;4.93;3.03;;;26.70;47.30;26.90;100281;;;;574216;246;23130;-84
2022/03/28 07:10:59;;;;;;;6.53;3.67;;;27.30;46.60;27.40;100276;;;;573635;246;23171;-78
2022/03/28 07:13:27;;;;;;;9.43;3.50;;;27.70;45.60;28.10;100279;;;;582095;246;24067;-80
2022/03/28 07:15:55;;;;;;;6.45;3.35;;;28.40;44.60;28.70;100279;;;;573388;246;23065;-77
2022/03/28 07:18:22;;;;;;;18.37;3.80;;;29.00;44.00;28.80;100263;;;;582063;246;23068;-80
2022/03/28 07:20:53;;;;;;;11.18;3.65;;;29.30;42.70;28.80;100266;;;;582021;246;24120;-79
2022/03/28 07:23:22;;;;;;;20.25;3.92;;;29.40;42.30;29.00;100257;;;;573452;246;23152;-78
2022/03/28 07:25:49;;;;;;;6.05;3.10;;;29.50;42.20;29.40;100272;;;;582185;246;25161;-78
2022/03/28 07:28:21;;;;;;;6.97;3.35;;;29.80;41.60;29.60;100254;;;;582183;246;23084;-82
2022/03/28 07:30:45;;;;;;;10.27;3.28;;;30.10;41.20;30.20;100259;;;;581551;244;23149;-78
2022/03/28 07:33:13;;;;;;;5.85;3.00;;;30.50;40.80;30.60;100254;;;;573075;246;23062;-78
2022/03/28 07:35:41;;;;;;;8.80;2.83;;;30.90;40.30;30.70;100245;;;;581746;246;23143;-82
2022/03/28 07:38:10;;;;;;;23.10;4.30;;;31.20;39.70;29.70;100252;;;;572814;246;23110;-78
2022/03/28 07:40:40;;;;;;;14.20;3.78;;;30.50;39.50;29.60;100253;;;;581703;246;23073;-77
2022/03/28 07:43:04;;;;;;;9.07;3.37;;;30.20;39.80;29.20;100251;;;;572693;246;23078;-82
2022/03/28 07:45:32;;;;;;;5.07;3.17;;;29.90;40.00;29.40;100250;;;;573399;246;24067;-78
2022/03/28 07:48:00;;;;;;;9.90;3.10;;;29.90;40.20;29.20;100241;;;;573460;246;24114;-78
2022/03/28 07:50:29;;;;;;;6.80;2.90;;;30.00;39.70;28.90;100251;;;;581751;246;23069;-78
2022/03/28 07:52:56;;;;;;;4.53;2.92;;;29.70;40.00;28.50;100244;;;;581782;246;23120;-78
2022/03/28 07:55:26;;;;;;;12.05;3.30;;;29.30;40.40;28.40;100234;;;;581778;246;24063;-79
2022/03/28 07:57:52;;;;;;;5.60;2.95;;;29.00;40.80;29.40;100229;;;;581876;246;24142;-79
2022/03/28 08:00:20;;;;;;;18.95;3.17;;;29.60;40.70;30.20;100232;;;;581806;246;23069;-82
2022/03/28 08:02:48;;;;;;;13.20;3.62;;;30.90;39.20;30.50;100224;;;;581975;246;23088;-76
2022/03/28 08:05:17;;;;;;;22.98;3.97;;;31.60;38.50;31.30;100225;;;;582837;245;23074;-79
2022/03/28 08:07:46;;;;;;;7.07;2.90;;;32.10;38.20;31.70;100224;;;;582861;246;23134;-77
2022/03/28 08:10:14;;;;;;;16.90;3.45;;;32.00;38.00;31.70;100214;;;;582684;246;23061;-79
2022/03/28 08:12:43;;;;;;;7.32;3.28;;;32.20;37.50;32.00;100200;;;;582514;246;23087;-80
2022/03/28 08:15:10;;;;;;;14.95;3.17;;;32.40;37.30;32.40;100217;;;;582266;246;24065;-79
2022/03/28 08:17:41;;;;;;;7.68;3.20;;;32.80;37.00;32.90;100217;;;;573354;246;23108;-81
2022/03/28 08:20:06;;;;;;;19.90;3.95;;;33.30;36.70;33.10;100212;;;;573398;246;23248;-79
2022/03/28 08:22:40;;;;;;;9.32;3.70;;;33.60;36.20;32.60;100213;;;;582156;246;23073;-79
2022/03/28 08:25:08;;;;;;;15.60;3.50;;;33.40;36.00;32.00;100225;;;;573029;246;23121;-80
2022/03/28 08:27:36;;;;;;;16.48;3.37;;;33.00;36.10;31.80;100223;;;;573293;246;23076;-79
2022/03/28 08:30:03;;;;;;;47.10;4.93;;;32.60;36.60;31.90;100224;;;;573113;246;23064;-79
2022/03/28 08:32:35;;;;;;;17.15;3.40;;;32.70;36.40;32.40;100215;;;;573233;246;23101;-79
2022/03/28 08:34:59;;;;;;;9.00;3.08;;;33.00;36.40;32.50;100209;;;;581603;246;23091;-80
2022/03/28 08:37:27;;;;;;;15.65;2.92;;;33.20;36.00;32.40;100205;;;;582367;246;23073;-81
2022/03/28 08:39:59;;;;;;;11.35;3.25;;;33.10;36.10;32.80;100213;;;;582066;246;23128;-78
2022/03/28 08:42:23;;;;;;;25.52;3.58;;;33.50;36.00;32.70;100204;;;;572585;246;23091;-78
2022/03/28 08:44:51;;;;;;;16.60;7.30;;;33.50;35.60;32.90;100218;;;;573029;246;23100;-79
2022/03/28 08:47:19;;;;;;;9.80;3.67;;;33.70;35.80;33.00;100213;;;;582060;246;23066;-78
2022/03/28 08:49:50;;;;;;;12.50;3.20;;;33.90;35.50;32.70;100222;;;;573102;246;23089;-78
2022/03/28 08:52:18;;;;;;;6.70;3.15;;;33.80;35.40;32.30;100212;;;;572675;246;23096;-78
2022/03/28 08:54:46;;;;;;;16.67;3.33;;;33.50;36.00;32.00;100215;;;;581594;246;24104;-78
2022/03/28 08:57:17;;;;;;;13.48;3.17;;;33.10;35.90;32.00;100214;;;;581666;246;23088;-77
2022/03/28 08:59:41;;;;;;;20.77;3.55;;;32.90;36.10;32.20;100218;;;;572629;246;23134;-79
2022/03/28 09:02:31;;;;;;;26.30;3.80;;;33.10;36.00;31.70;100226;;;;573079;246;23073;-78
2022/03/28 09:04:59;;;;;;;15.85;3.10;;;32.80;35.70;31.20;100227;;;;573347;247;23081;-79
2022/03/28 09:07:31;;;;;;;23.25;4.80;;;32.50;37.00;31.60;100200;;;;582516;243;23046;-79
2022/03/28 09:10:05;;;;;;;13.55;3.55;;;32.70;36.10;31.90;100209;;;;577478;243;23076;-79
2022/03/28 09:12:39;;;;;;;36.05;4.45;;;32.70;36.10;31.80;100225;;;;569757;248;23137;-78
2022/03/28 09:15:08;;;;;;;14.43;3.47;;;32.90;35.90;31.40;100210;;;;571177;248;23075;-80
2022/03/28 09:17:32;;;;;;;7.85;2.60;;;32.60;36.00;31.40;100216;;;;574707;247;23121;-79
2022/03/28 09:20:02;;;;;;;11.35;3.08;;;32.60;36.20;30.70;100213;;;;573044;247;23141;-79
2022/03/28 09:22:30;;;;;;;11.27;2.87;;;32.10;36.20;30.70;100208;;;;572789;247;23069;-78
2022/03/28 09:25:01;;;;;;;28.02;5.00;;;31.80;36.80;30.60;100205;;;;574115;247;24121;-77
2022/03/28 09:27:37;;;;;;;27.58;4.00;;;31.90;36.60;30.50;100195;;;;572490;247;23070;-78
2022/03/28 09:30:11;;;;;;;14.05;3.25;;;31.80;36.70;30.30;100198;;;;572573;247;23081;-82
2022/03/28 09:32:39;;;;;;;14.18;3.92;;;31.70;36.80;30.10;100206;;;;572470;247;23114;-80
2022/03/28 09:35:13;;;;;;;8.38;3.20;;;31.60;37.00;29.60;100207;;;;569854;247;23085;-81
2022/03/28 09:38:01;;;;;;;7.45;2.97;;;31.20;37.40;29.60;100199;;;;570111;247;24115;-80
2022/03/28 09:40:27;;;;;;;7.87;2.70;;;31.00;38.00;29.60;100212;;;;580252;243;23045;-81
2022/03/28 09:42:59;;;;;;;19.40;3.40;;;31.00;37.60;29.70;100198;;;;572324;247;23073;-81
2022/03/28 09:45:42;;;;;;;25.60;3.58;;;31.30;37.50;29.90;100206;;;;582837;243;23057;-82
2022/03/28 09:48:12;;;;;;;12.68;3.20;;;31.30;37.50;29.30;100203;;;;580752;243;24075;-78
2022/03/28 09:50:40;;;;;;;18.20;3.28;;;31.00;37.70;28.90;100205;;;;571824;247;23117;-78
2022/03/28 09:53:17;;;;;;;15.55;3.03;;;30.60;38.00;29.20;100209;;;;572083;248;23114;-79
2022/03/28 09:55:51;;;;;;;7.60;2.58;;;30.70;38.40;30.30;100206;;;;571717;248;23068;-81
2022/03/28 09:58:48;;;;;;;16.30;3.58;;;31.90;36.90;30.30;100208;;;;572877;248;23065;-77
2022/03/28 10:01:18;;;;;;;10.10;2.80;;;32.00;36.90;30.40;100201;;;;572232;248;24122;-77
2022/03/28 10:03:49;;;;;;;9.68;2.83;;;32.00;36.90;30.30;100206;;;;571735;248;23070;-77
2022/03/28 10:06:17;;;;;;;10.80;3.80;;;32.00;37.20;30.90;100200;;;;569844;248;23109;-78
2022/03/28 10:08:48;;;;;;;13.45;3.15;;;32.40;36.80;31.00;100216;;;;571916;248;23077;-77
2022/03/28 10:11:13;;;;;;;13.77;3.08;;;33.00;35.80;30.60;100212;;;;569217;248;23070;-78
2022/03/28 10:13:41;;;;;;;7.37;2.15;;;32.80;36.00;30.70;100201;;;;571896;248;23090;-78
2022/03/28 10:16:09;;;;;;;5.15;2.55;;;32.80;35.80;30.60;100201;;;;580574;246;23066;-78
2022/03/28 10:18:37;;;;;;;4.60;2.85;;;32.70;35.90;30.10;100212;;;;582211;243;23065;-79
2022/03/28 10:21:07;;;;;;;6.07;2.15;;;32.40;36.10;28.40;100210;;;;569461;248;23121;-78
2022/03/28 10:23:36;;;;;;;8.95;2.85;;;29.10;38.80;26.40;100195;;;;591057;242;23096;-77
2022/03/28 10:26:04;;;;;;;5.87;2.90;;;26.70;41.40;24.10;100207;;;;572595;246;24110;-80
2022/03/28 10:28:32;;;;;;;8.50;2.57;;;26.60;41.30;22.50;100196;;;;572672;247;23081;-81
2022/03/28 10:31:09;;;;;;;10.87;3.00;;;24.60;44.50;21.20;100189;;;;583648;243;24026;-80
2022/03/28 10:33:37;;;;;;;14.73;3.47;;;22.90;47.20;20.00;100183;;;;573564;247;24091;-82
2022/03/28 10:36:06;;;;;;;20.90;3.57;;;19.90;52.80;18.30;100195;;;;573290;247;24101;-81
2022/03/28 10:38:35;;;;;;;14.17;3.13;;;18.60;55.60;17.30;100183;;;;572576;247;24129;-80
2022/03/28 10:41:07;;;;;;;4.03;2.43;;;17.60;58.00;16.50;100177;;;;572527;247;24042;-80
2022/03/28 10:43:34;;;;;;;25.47;3.77;;;17.50;57.90;15.80;100174;;;;580426;247;24074;-79
2022/03/28 10:46:09;;;;;;;7.80;2.53;;;16.80;59.80;15.40;100163;;;;581243;247;24305;-78
2022/03/28 10:48:36;;;;;;;7.90;2.87;;;16.20;62.00;14.80;100153;;;;570703;247;24092;-79
2022/03/28 10:51:04;;;;;;;13.83;3.50;;;15.60;63.90;14.30;100143;;;;570772;247;24066;-78
2022/03/28 10:53:41;;;;;;;7.73;2.33;;;15.10;65.80;14.00;100135;;;;572254;247;24092;-79
2022/03/28 10:56:08;;;;;;;9.30;2.83;;;14.60;67.30;13.70;100137;;;;582766;243;24076;-82
2022/03/28 10:58:40;;;;;;;4.07;2.47;;;14.00;70.50;13.50;100139;;;;569822;247;25109;-83
2022/03/28 11:01:13;;;;;;;2.63;1.83;;;14.00;70.30;13.20;100126;;;;580829;247;24123;-81
2022/03/28 11:04:08;;;;;;;13.17;2.60;;;13.80;71.20;12.90;100117;;;;573284;248;24049;-83
2022/03/28 11:06:59;;;;;;;22.03;3.90;;;13.60;72.30;12.60;100116;;;;581330;247;24081;-78
2022/03/28 11:09:59;;;;;;;10.10;2.50;;;13.30;72.80;12.30;100112;;;;571758;248;24070;-78
2022/03/28 11:12:37;;;;;;;9.07;2.47;;;13.00;74.40;12.00;100109;;;;569793;248;24067;-80
2022/03/28 11:15:15;;;;;;;2.93;2.20;;;12.70;75.50;11.80;100100;;;;567957;247;24046;-81
2022/03/28 11:17:55;;;;;;;4.33;1.87;;;12.50;76.60;11.60;100090;;;;571818;248;24053;-81
2022/03/28 11:20:24;;;;;;;18.27;3.43;;;12.10;78.60;11.50;100088;;;;571892;248;24066;-82
2022/03/28 11:23:10;;;;;;;6.73;1.83;;;12.10;78.60;11.30;100086;;;;580876;247;24123;-80